sensor_id;sensor_type;location;lat;lon;timestamp;pressure;altitude;pressure_sealevel;temperature;humidity
46942;BME280;32676;52.630;4.896;2024-03-22T00:00:57;101481.03;;;10.05;87.16
46942;BME280;32676;52.630;4.896;2024-03-22T00:03:23;101526.13;;;10.27;87.15
46942;BME280;32676;52.630;4.896;2024-03-22T00:05:49;101519.94;;;10.29;87.16
46942;BME280;32676;52.630;4.896;2024-03-22T00:08:15;101529.44;;;10.36;87.16
46942;BME280;32676;52.630;4.896;2024-03-22T00:10:42;101492.25;;;10.11;87.42
46942;BME280;32676;52.630;4.896;2024-03-22T00:13:07;101506.88;;;10.26;87.68
46942;BME280;32676;52.630;4.896;2024-03-22T00:15:34;101473.16;;;10.05;87.18
46942;BME280;32676;52.630;4.896;2024-03-22T00:18:01;101430.69;;;9.84;87.61
46942;BME280;32676;52.630;4.896;2024-03-22T00:20:27;101484.31;;;10.16;87.47
46942;BME280;32676;52.630;4.896;2024-03-22T00:22:53;101531.06;;;10.44;87.47
46942;BME280;32676;52.630;4.896;2024-03-22T00:25:20;101523.41;;;10.33;87.56
46942;BME280;32676;52.630;4.896;2024-03-22T00:27:45;101529.38;;;10.41;87.50
46942;BME280;32676;52.630;4.896;2024-03-22T00:30:12;101527.59;;;10.42;87.51
46942;BME280;32676;52.630;4.896;2024-03-22T00:32:38;101525.88;;;10.41;87.61
46942;BME280;32676;52.630;4.896;2024-03-22T00:35:06;101527.59;;;10.42;87.22
46942;BME280;32676;52.630;4.896;2024-03-22T00:37:32;101522.53;;;10.32;87.42
46942;BME280;32676;52.630;4.896;2024-03-22T00:39:58;101488.00;;;10.06;87.36
46942;BME280;32676;52.630;4.896;2024-03-22T00:42:24;101532.91;;;10.38;87.41
46942;BME280;32676;52.630;4.896;2024-03-22T00:44:50;101466.28;;;9.99;87.18
46942;BME280;32676;52.630;4.896;2024-03-22T00:47:16;101545.03;;;10.46;87.60
46942;BME280;32676;52.630;4.896;2024-03-22T00:49:43;101482.69;;;10.09;87.58
46942;BME280;32676;52.630;4.896;2024-03-22T00:52:10;101531.25;;;10.34;87.67
46942;BME280;32676;52.630;4.896;2024-03-22T00:54:36;101551.19;;;10.45;87.56
46942;BME280;32676;52.630;4.896;2024-03-22T00:57:04;101458.59;;;9.88;87.27
46942;BME280;32676;52.630;4.896;2024-03-22T00:59:31;101495.88;;;10.06;87.46
46942;BME280;32676;52.630;4.896;2024-03-22T01:01:57;101573.00;;;10.50;87.30
46942;BME280;32676;52.630;4.896;2024-03-22T01:04:23;101559.88;;;10.48;87.60
46942;BME280;32676;52.630;4.896;2024-03-22T01:06:49;101524.34;;;10.27;87.38
46942;BME280;32676;52.630;4.896;2024-03-22T01:09:17;101503.56;;;10.15;87.46
46942;BME280;32676;52.630;4.896;2024-03-22T01:11:45;101570.38;;;10.50;87.45
46942;BME280;32676;52.630;4.896;2024-03-22T01:14:11;101566.00;;;10.49;87.31
46942;BME280;32676;52.630;4.896;2024-03-22T01:16:37;101572.09;;;10.51;87.50
46942;BME280;32676;52.630;4.896;2024-03-22T01:19:05;101432.75;;;9.67;87.26
46942;BME280;32676;52.630;4.896;2024-03-22T01:21:30;101576.47;;;10.52;87.63
46942;BME280;32676;52.630;4.896;2024-03-22T01:23:57;101524.47;;;10.21;87.19
46942;BME280;32676;52.630;4.896;2024-03-22T01:26:24;101567.94;;;10.41;87.57
46942;BME280;32676;52.630;4.896;2024-03-22T01:28:51;101455.31;;;9.77;87.14
46942;BME280;32676;52.630;4.896;2024-03-22T01:31:16;101453.59;;;9.76;87.22
46942;BME280;32676;52.630;4.896;2024-03-22T01:33:45;101574.78;;;10.48;87.30
46942;BME280;32676;52.630;4.896;2024-03-22T01:36:11;101483.00;;;9.93;87.24
46942;BME280;32676;52.630;4.896;2024-03-22T01:38:37;101583.50;;;10.50;87.26
46942;BME280;32676;52.630;4.896;2024-03-22T01:41:03;101573.00;;;10.50;87.13
46942;BME280;32676;52.630;4.896;2024-03-22T01:43:32;101571.25;;;10.49;87.28
46942;BME280;32676;52.630;4.896;2024-03-22T01:45:58;101574.72;;;10.51;87.15
46942;BME280;32676;52.630;4.896;2024-03-22T01:48:24;101464.84;;;9.83;87.09
46942;BME280;32676;52.630;4.896;2024-03-22T01:50:50;101562.78;;;10.34;87.07
46942;BME280;32676;52.630;4.896;2024-03-22T01:53:18;101536.66;;;10.25;87.12
46942;BME280;32676;52.630;4.896;2024-03-22T01:55:43;101576.50;;;10.49;86.91
46942;BME280;32676;52.630;4.896;2024-03-22T01:58:11;101538.41;;;10.26;86.83
46942;BME280;32676;52.630;4.896;2024-03-22T02:00:39;101472.50;;;9.93;87.03
46942;BME280;32676;52.630;4.896;2024-03-22T02:03:05;101562.53;;;10.47;86.83
46942;BME280;32676;52.630;4.896;2024-03-22T02:05:31;101548.81;;;10.32;86.81
46942;BME280;32676;52.630;4.896;2024-03-22T02:07:58;101517.50;;;10.20;87.01
46942;BME280;32676;52.630;4.896;2024-03-22T02:10:24;101559.09;;;10.45;86.94
46942;BME280;32676;52.630;4.896;2024-03-22T02:12:50;101459.47;;;9.89;87.01
46942;BME280;32676;52.630;4.896;2024-03-22T02:15:16;101496.75;;;10.08;86.87
46942;BME280;32676;52.630;4.896;2024-03-22T02:17:44;101518.25;;;10.27;87.03
46942;BME280;32676;52.630;4.896;2024-03-22T02:20:10;101479.28;;;10.04;86.98
46942;BME280;32676;52.630;4.896;2024-03-22T02:22:38;101519.03;;;10.30;86.69
46942;BME280;32676;52.630;4.896;2024-03-22T02:25:05;101496.50;;;10.18;86.95
46942;BME280;32676;52.630;4.896;2024-03-22T02:27:32;101445.47;;;9.88;86.81
46942;BME280;32676;52.630;4.896;2024-03-22T02:29:58;101452.41;;;9.92;87.05
46942;BME280;32676;52.630;4.896;2024-03-22T02:32:24;101488.72;;;10.14;87.15
46942;BME280;32676;52.630;4.896;2024-03-22T02:34:50;101494.75;;;10.19;86.98
46942;BME280;32676;52.630;4.896;2024-03-22T02:37:17;101507.81;;;10.22;87.19
46942;BME280;32676;52.630;4.896;2024-03-22T02:39:42;101531.19;;;10.37;87.24
46942;BME280;32676;52.630;4.896;2024-03-22T02:42:09;101456.75;;;9.93;87.29
46942;BME280;32676;52.630;4.896;2024-03-22T02:44:36;101505.28;;;10.19;87.32
46942;BME280;32676;52.630;4.896;2024-03-22T02:47:07;101537.28;;;10.40;87.21
46942;BME280;32676;52.630;4.896;2024-03-22T02:49:34;101443.84;;;9.83;87.39
46942;BME280;32676;52.630;4.896;2024-03-22T02:51:59;101534.78;;;10.33;87.21
46942;BME280;32676;52.630;4.896;2024-03-22T02:54:26;101432.53;;;9.79;87.00
46942;BME280;32676;52.630;4.896;2024-03-22T02:56:52;101473.19;;;10.03;87.15
46942;BME280;32676;52.630;4.896;2024-03-22T02:59:20;101513.78;;;10.33;87.01
46942;BME280;32676;52.630;4.896;2024-03-22T03:01:45;101506.91;;;10.25;87.17
46942;BME280;32676;52.630;4.896;2024-03-22T03:04:12;101507.75;;;10.25;87.10
46942;BME280;32676;52.630;4.896;2024-03-22T03:06:38;101429.91;;;9.79;87.13
46942;BME280;32676;52.630;4.896;2024-03-22T03:09:04;101503.28;;;10.30;87.21
46942;BME280;32676;52.630;4.896;2024-03-22T03:11:30;101499.09;;;10.20;87.21
46942;BME280;32676;52.630;4.896;2024-03-22T03:13:57;101487.00;;;10.13;87.16
46942;BME280;32676;52.630;4.896;2024-03-22T03:16:24;101512.03;;;10.32;87.08
46942;BME280;32676;52.630;4.896;2024-03-22T03:18:50;101506.78;;;10.29;87.13
46942;BME280;32676;52.630;4.896;2024-03-22T03:21:16;101515.53;;;10.31;87.12
46942;BME280;32676;52.630;4.896;2024-03-22T03:23:42;101513.78;;;10.30;87.02
46942;BME280;32676;52.630;4.896;2024-03-22T03:26:08;101506.13;;;10.19;87.19
46942;BME280;32676;52.630;4.896;2024-03-22T03:28:34;101532.06;;;10.38;87.15
46942;BME280;32676;52.630;4.896;2024-03-22T03:31:02;101539.91;;;10.40;87.38
46942;BME280;32676;52.630;4.896;2024-03-22T03:33:30;101410.13;;;9.63;87.21
46942;BME280;32676;52.630;4.896;2024-03-22T03:35:55;101551.25;;;10.42;87.17
46942;BME280;32676;52.630;4.896;2024-03-22T03:38:22;101560.03;;;10.41;87.20
46942;BME280;32676;52.630;4.896;2024-03-22T03:40:47;101556.50;;;10.42;87.19
46942;BME280;32676;52.630;4.896;2024-03-22T03:43:14;101547.75;;;10.41;86.79
46942;BME280;32676;52.630;4.896;2024-03-22T03:45:39;101553.88;;;10.42;87.03
46942;BME280;32676;52.630;4.896;2024-03-22T03:48:06;101546.03;;;10.38;86.79
46942;BME280;32676;52.630;4.896;2024-03-22T03:50:33;101498.47;;;10.09;86.74
46942;BME280;32676;52.630;4.896;2024-03-22T03:53:00;101543.56;;;10.32;86.54
46942;BME280;32676;52.630;4.896;2024-03-22T03:55:26;101575.72;;;10.44;86.67
46942;BME280;32676;52.630;4.896;2024-03-22T03:57:53;101508.91;;;10.12;86.51
46942;BME280;32676;52.630;4.896;2024-03-22T04:00:19;101526.19;;;10.22;86.47
46942;BME280;32676;52.630;4.896;2024-03-22T04:02:48;101553.03;;;10.41;86.24
46942;BME280;32676;52.630;4.896;2024-03-22T04:05:14;101515.81;;;10.17;86.59
46942;BME280;32676;52.630;4.896;2024-03-22T04:07:42;101560.88;;;10.43;86.28
46942;BME280;32676;52.630;4.896;2024-03-22T04:10:08;101531.44;;;10.22;86.25
46942;BME280;32676;52.630;4.896;2024-03-22T04:12:35;101530.66;;;10.18;86.27
46942;BME280;32676;52.630;4.896;2024-03-22T04:15:01;101539.19;;;10.30;86.37
46942;BME280;32676;52.630;4.896;2024-03-22T04:17:28;101571.31;;;10.46;86.44
46942;BME280;32676;52.630;4.896;2024-03-22T04:19:53;101462.19;;;9.84;86.05
46942;BME280;32676;52.630;4.896;2024-03-22T04:22:20;101523.56;;;10.22;86.25
46942;BME280;32676;52.630;4.896;2024-03-22T04:24:47;101409.41;;;9.51;86.12
46942;BME280;32676;52.630;4.896;2024-03-22T04:27:13;101524.47;;;10.21;86.21
46942;BME280;32676;52.630;4.896;2024-03-22T04:29:39;101546.03;;;10.38;86.15
46942;BME280;32676;52.630;4.896;2024-03-22T04:32:06;101526.09;;;10.28;86.41
46942;BME280;32676;52.630;4.896;2024-03-22T04:34:32;101539.97;;;10.36;86.44
46942;BME280;32676;52.630;4.896;2024-03-22T04:36:58;101500.06;;;10.16;86.51
46942;BME280;32676;52.630;4.896;2024-03-22T04:39:25;101526.00;;;10.34;86.39
46942;BME280;32676;52.630;4.896;2024-03-22T04:41:52;101470.63;;;9.98;86.53
46942;BME280;32676;52.630;4.896;2024-03-22T04:44:18;101412.78;;;9.59;86.44
46942;BME280;32676;52.630;4.896;2024-03-22T04:46:45;101526.91;;;10.33;86.64
46942;BME280;32676;52.630;4.896;2024-03-22T04:49:11;101471.63;;;9.93;86.42
46942;BME280;32676;52.630;4.896;2024-03-22T04:51:37;101469.78;;;9.98;86.65
46942;BME280;32676;52.630;4.896;2024-03-22T04:54:04;101494.88;;;10.13;86.41
46942;BME280;32676;52.630;4.896;2024-03-22T04:56:29;101468.88;;;10.01;86.55
46942;BME280;32676;52.630;4.896;2024-03-22T04:58:57;101537.44;;;10.32;86.35
46942;BME280;32676;52.630;4.896;2024-03-22T05:01:23;101428.28;;;9.73;86.16
46942;BME280;32676;52.630;4.896;2024-03-22T05:03:50;101503.53;;;10.18;86.04
46942;BME280;32676;52.630;4.896;2024-03-22T05:06:16;101493.03;;;10.16;86.10
46942;BME280;32676;52.630;4.896;2024-03-22T05:08:43;101498.22;;;10.21;86.28
46942;BME280;32676;52.630;4.896;2024-03-22T05:11:08;101530.41;;;10.32;86.11
46942;BME280;32676;52.630;4.896;2024-03-22T05:13:37;101406.56;;;9.64;85.79
46942;BME280;32676;52.630;4.896;2024-03-22T05:16:06;101522.53;;;10.32;85.54
46942;BME280;32676;52.630;4.896;2024-03-22T05:18:33;101351.28;;;9.28;85.47
46942;BME280;32676;52.630;4.896;2024-03-22T05:20:59;101460.22;;;9.95;85.48
46942;BME280;32676;52.630;4.896;2024-03-22T05:23:25;101526.03;;;10.31;85.40
46942;BME280;32676;52.630;4.896;2024-03-22T05:25:51;101526.91;;;10.33;85.14
46942;BME280;32676;52.630;4.896;2024-03-22T05:28:18;101536.50;;;10.34;85.18
46942;BME280;32676;52.630;4.896;2024-03-22T05:30:43;101526.97;;;10.27;84.87
46942;BME280;32676;52.630;4.896;2024-03-22T05:33:12;101539.97;;;10.36;84.70
46942;BME280;32676;52.630;4.896;2024-03-22T05:35:38;101527.81;;;10.29;84.71
46942;BME280;32676;52.630;4.896;2024-03-22T05:38:04;101510.56;;;10.16;84.59
46942;BME280;32676;52.630;4.896;2024-03-22T05:40:31;101434.44;;;9.69;84.66
46942;BME280;32676;52.630;4.896;2024-03-22T05:42:57;101517.63;;;10.14;84.73
46942;BME280;32676;52.630;4.896;2024-03-22T05:45:23;101455.28;;;9.78;84.48
46942;BME280;32676;52.630;4.896;2024-03-22T05:47:49;101547.06;;;10.31;84.33
46942;BME280;32676;52.630;4.896;2024-03-22T05:50:17;101482.94;;;9.96;84.20
46942;BME280;32676;52.630;4.896;2024-03-22T05:52:43;101487.28;;;9.99;84.14
46942;BME280;32676;52.630;4.896;2024-03-22T05:55:09;101482.06;;;9.97;84.04
46942;BME280;32676;52.630;4.896;2024-03-22T05:57:36;101518.44;;;10.16;83.98
46942;BME280;32676;52.630;4.896;2024-03-22T06:00:02;101539.22;;;10.28;84.11
46942;BME280;32676;52.630;4.896;2024-03-22T06:02:29;101552.16;;;10.41;83.98
46942;BME280;32676;52.630;4.896;2024-03-22T06:04:54;101412.03;;;9.51;83.99
46942;BME280;32676;52.630;4.896;2024-03-22T06:07:22;101522.88;;;10.14;83.74
46942;BME280;32676;52.630;4.896;2024-03-22T06:09:48;101512.59;;;10.02;83.79
46942;BME280;32676;52.630;4.896;2024-03-22T06:12:15;101550.56;;;10.32;83.53
46942;BME280;32676;52.630;4.896;2024-03-22T06:14:41;101522.03;;;10.13;83.45
46942;BME280;32676;52.630;4.896;2024-03-22T06:17:08;101486.47;;;9.95;83.56
46942;BME280;32676;52.630;4.896;2024-03-22T06:19:34;101553.19;;;10.32;83.57
46942;BME280;32676;52.630;4.896;2024-03-22T06:22:01;101542.88;;;10.21;83.39
46942;BME280;32676;52.630;4.896;2024-03-22T06:24:29;101588.81;;;10.47;83.63
46942;BME280;32676;52.630;4.896;2024-03-22T06:26:56;101491.78;;;9.92;83.29
46942;BME280;32676;52.630;4.896;2024-03-22T06:29:21;101575.88;;;10.36;83.42
46942;BME280;32676;52.630;4.896;2024-03-22T06:31:48;101528.13;;;10.14;83.32
46942;BME280;32676;52.630;4.896;2024-03-22T06:34:15;101488.38;;;9.87;83.14
46942;BME280;32676;52.630;4.896;2024-03-22T06:36:42;101587.03;;;10.49;82.82
46942;BME280;32676;52.630;4.896;2024-03-22T06:39:08;101561.06;;;10.33;82.65
46942;BME280;32676;52.630;4.896;2024-03-22T06:41:36;101564.59;;;10.29;82.75
46942;BME280;32676;52.630;4.896;2024-03-22T06:44:02;101540.44;;;10.12;82.62
46942;BME280;32676;52.630;4.896;2024-03-22T06:46:29;101595.72;;;10.51;82.61
46942;BME280;32676;52.630;4.896;2024-03-22T06:48:55;101604.44;;;10.53;82.56
46942;BME280;32676;52.630;4.896;2024-03-22T06:51:22;101606.38;;;10.45;82.58
46942;BME280;32676;52.630;4.896;2024-03-22T06:53:47;101592.44;;;10.40;82.31
46942;BME280;32676;52.630;4.896;2024-03-22T06:56:14;101613.28;;;10.49;82.43
46942;BME280;32676;52.630;4.896;2024-03-22T06:58:41;101621.91;;;10.57;82.45
46942;BME280;32676;52.630;4.896;2024-03-22T07:01:07;101605.53;;;10.44;82.46
46942;BME280;32676;52.630;4.896;2024-03-22T07:03:33;101532.78;;;9.99;82.04
46942;BME280;32676;52.630;4.896;2024-03-22T07:06:00;101641.13;;;10.59;82.26
46942;BME280;32676;52.630;4.896;2024-03-22T07:08:26;101632.53;;;10.51;82.33
46942;BME280;32676;52.630;4.896;2024-03-22T07:10:53;101641.97;;;10.61;82.31
46942;BME280;32676;52.630;4.896;2024-03-22T07:13:19;101630.84;;;10.47;82.38
46942;BME280;32676;52.630;4.896;2024-03-22T07:15:48;101645.56;;;10.57;82.38
46942;BME280;32676;52.630;4.896;2024-03-22T07:18:14;101660.38;;;10.61;82.38
46942;BME280;32676;52.630;4.896;2024-03-22T07:20:41;101620.47;;;10.41;82.36
46942;BME280;32676;52.630;4.896;2024-03-22T07:23:07;101601.38;;;10.29;82.35
46942;BME280;32676;52.630;4.896;2024-03-22T07:25:33;101660.31;;;10.64;82.53
46942;BME280;32676;52.630;4.896;2024-03-22T07:27:59;101653.31;;;10.63;82.63
46942;BME280;32676;52.630;4.896;2024-03-22T07:30:26;101618.72;;;10.40;82.30
46942;BME280;32676;52.630;4.896;2024-03-22T07:32:52;101632.66;;;10.45;82.52
46942;BME280;32676;52.630;4.896;2024-03-22T07:35:19;101660.41;;;10.58;82.43
46942;BME280;32676;52.630;4.896;2024-03-22T07:37:45;101599.66;;;10.28;82.46
46942;BME280;32676;52.630;4.896;2024-03-22T07:40:11;101643.03;;;10.51;82.29
46942;BME280;32676;52.630;4.896;2024-03-22T07:42:37;101595.41;;;10.21;82.40
46942;BME280;32676;52.630;4.896;2024-03-22T07:45:04;101635.97;;;10.53;82.25
46942;BME280;32676;52.630;4.896;2024-03-22T07:47:30;101575.34;;;10.17;82.45
46942;BME280;32676;52.630;4.896;2024-03-22T07:49:58;101555.53;;;10.01;82.44
46942;BME280;32676;52.630;4.896;2024-03-22T07:52:24;101590.97;;;10.23;82.48
46942;BME280;32676;52.630;4.896;2024-03-22T07:54:50;101579.66;;;10.19;82.28
46942;BME280;32676;52.630;4.896;2024-03-22T07:57:16;101663.78;;;10.66;82.32
46942;BME280;32676;52.630;4.896;2024-03-22T07:59:43;101591.03;;;10.20;82.33
46942;BME280;32676;52.630;4.896;2024-03-22T08:02:09;101662.03;;;10.65;82.49
46942;BME280;32676;52.630;4.896;2024-03-22T08:04:36;101673.38;;;10.67;82.18
46942;BME280;32676;52.630;4.896;2024-03-22T08:07:03;101637.84;;;10.48;82.39
46942;BME280;32676;52.630;4.896;2024-03-22T08:09:30;101655.16;;;10.58;82.30
46942;BME280;32676;52.630;4.896;2024-03-22T08:11:55;101670.75;;;10.67;82.12
46942;BME280;32676;52.630;4.896;2024-03-22T08:14:22;101683.00;;;10.70;82.09
46942;BME280;32676;52.630;4.896;2024-03-22T08:16:48;101582.44;;;10.12;82.60
46942;BME280;32676;52.630;4.896;2024-03-22T08:19:15;101648.25;;;10.54;83.00
46942;BME280;32676;52.630;4.896;2024-03-22T08:21:40;101634.19;;;10.55;83.17
46942;BME280;32676;52.630;4.896;2024-03-22T08:24:08;101590.84;;;10.32;83.79
46942;BME280;32676;52.630;4.896;2024-03-22T08:26:34;101586.41;;;10.36;84.26
46942;BME280;32676;52.630;4.896;2024-03-22T08:29:00;101545.69;;;10.12;84.85
46942;BME280;32676;52.630;4.896;2024-03-22T08:31:26;101568.88;;;10.35;85.13
46942;BME280;32676;52.630;4.896;2024-03-22T08:33:53;101536.72;;;10.22;85.51
46942;BME280;32676;52.630;4.896;2024-03-22T08:36:21;101548.91;;;10.26;86.11
46942;BME280;32676;52.630;4.896;2024-03-22T08:38:48;101552.22;;;10.37;86.27
46942;BME280;32676;52.630;4.896;2024-03-22T08:41:15;101481.09;;;10.02;86.49
46942;BME280;32676;52.630;4.896;2024-03-22T08:43:42;101402.44;;;9.52;86.55
46942;BME280;32676;52.630;4.896;2024-03-22T08:46:07;101510.53;;;10.19;87.04
46942;BME280;32676;52.630;4.896;2024-03-22T08:48:34;101506.88;;;10.26;87.26
46942;BME280;32676;52.630;4.896;2024-03-22T08:50:59;101434.25;;;9.80;87.22
46942;BME280;32676;52.630;4.896;2024-03-22T08:53:26;101416.03;;;9.72;87.42
46942;BME280;32676;52.630;4.896;2024-03-22T08:55:53;101514.69;;;10.31;87.92
46942;BME280;32676;52.630;4.896;2024-03-22T08:58:21;101512.03;;;10.29;87.81
46942;BME280;32676;52.630;4.896;2024-03-22T09:00:47;101359.13;;;9.29;88.05
46942;BME280;32676;52.630;4.896;2024-03-22T09:03:13;101538.25;;;10.35;88.14
46942;BME280;32676;52.630;4.896;2024-03-22T09:05:40;101519.28;;;10.18;88.46
46942;BME280;32676;52.630;4.896;2024-03-22T09:08:07;101553.88;;;10.42;88.52
46942;BME280;32676;52.630;4.896;2024-03-22T09:10:33;101519.41;;;10.12;88.29
46942;BME280;32676;52.630;4.896;2024-03-22T09:12:59;101558.38;;;10.35;88.26
46942;BME280;32676;52.630;4.896;2024-03-22T09:15:26;101571.44;;;10.40;88.39
46942;BME280;32676;52.630;4.896;2024-03-22T09:17:53;101581.13;;;10.37;88.46
46942;BME280;32676;52.630;4.896;2024-03-22T09:20:18;101599.28;;;10.50;88.62
46942;BME280;32676;52.630;4.896;2024-03-22T09:22:45;101616.09;;;10.40;88.28
46942;BME280;32676;52.630;4.896;2024-03-22T09:25:11;101651.56;;;10.62;88.56
46942;BME280;32676;52.630;4.896;2024-03-22T09:27:38;101649.94;;;10.55;88.81
46942;BME280;32676;52.630;4.896;2024-03-22T09:30:10;101639.56;;;10.49;88.51
46942;BME280;32676;52.630;4.896;2024-03-22T09:32:38;101627.50;;;10.38;88.73
46942;BME280;32676;52.630;4.896;2024-03-22T09:35:06;101676.00;;;10.67;88.63
46942;BME280;32676;52.630;4.896;2024-03-22T09:37:32;101674.28;;;10.66;88.39
46942;BME280;32676;52.630;4.896;2024-03-22T09:39:58;101632.53;;;10.49;88.33
46942;BME280;32676;52.630;4.896;2024-03-22T09:42:25;101654.44;;;10.51;88.24
46942;BME280;32676;52.630;4.896;2024-03-22T09:44:52;101643.97;;;10.48;88.50
46942;BME280;32676;52.630;4.896;2024-03-22T09:47:19;101618.78;;;10.36;88.44
46942;BME280;32676;52.630;4.896;2024-03-22T09:49:48;101526.94;;;9.82;88.22
46942;BME280;32676;52.630;4.896;2024-03-22T09:52:15;101584.97;;;10.16;88.28
46942;BME280;32676;52.630;4.896;2024-03-22T09:54:44;101607.44;;;10.34;88.36
46942;BME280;32676;52.630;4.896;2024-03-22T09:57:14;101616.97;;;10.38;88.22
46942;BME280;32676;52.630;4.896;2024-03-22T09:59:40;101554.59;;;10.02;88.39
46942;BME280;32676;52.630;4.896;2024-03-22T10:02:09;101613.53;;;10.36;88.61
46942;BME280;32676;52.630;4.896;2024-03-22T10:04:35;101617.88;;;10.39;88.59
46942;BME280;32676;52.630;4.896;2024-03-22T10:07:04;101642.84;;;10.60;88.42
46942;BME280;32676;52.630;4.896;2024-03-22T10:09:30;101566.72;;;10.10;88.43
46942;BME280;32676;52.630;4.896;2024-03-22T10:11:57;101615.25;;;10.37;88.64
46942;BME280;32676;52.630;4.896;2024-03-22T10:14:23;101651.56;;;10.62;88.51
46942;BME280;32676;52.630;4.896;2024-03-22T10:16:52;101633.59;;;10.41;88.52
46942;BME280;32676;52.630;4.896;2024-03-22T10:19:19;101662.25;;;10.54;88.77
46942;BME280;32676;52.630;4.896;2024-03-22T10:21:45;101618.09;;;10.25;88.73
46942;BME280;32676;52.630;4.896;2024-03-22T10:24:12;101641.50;;;10.41;88.52
46942;BME280;32676;52.630;4.896;2024-03-22T10:26:40;101697.00;;;10.70;88.53
46942;BME280;32676;52.630;4.896;2024-03-22T10:29:06;101657.09;;;10.50;88.20
46942;BME280;32676;52.630;4.896;2024-03-22T10:31:34;101670.97;;;10.55;88.31
46942;BME280;32676;52.630;4.896;2024-03-22T10:34:02;101664.00;;;10.54;88.04
46942;BME280;32676;52.630;4.896;2024-03-22T10:36:31;101676.13;;;10.61;87.98
46942;BME280;32676;52.630;4.896;2024-03-22T10:38:58;101693.47;;;10.71;87.72
46942;BME280;32676;52.630;4.896;2024-03-22T10:41:26;101703.94;;;10.73;87.90
46942;BME280;32676;52.630;4.896;2024-03-22T10:43:52;101525.41;;;9.72;87.84
46942;BME280;32676;52.630;4.896;2024-03-22T10:46:20;101586.06;;;10.05;87.87
46942;BME280;32676;52.630;4.896;2024-03-22T10:48:46;101625.91;;;10.28;88.02
46942;BME280;32676;52.630;4.896;2024-03-22T10:51:14;101582.44;;;10.12;87.78
46942;BME280;32676;52.630;4.896;2024-03-22T10:53:41;101649.19;;;10.50;87.88
46942;BME280;32676;52.630;4.896;2024-03-22T10:56:08;101663.88;;;10.60;88.20
46942;BME280;32676;52.630;4.896;2024-03-22T10:58:39;101665.66;;;10.58;88.06
46942;BME280;32676;52.630;4.896;2024-03-22T11:01:06;101666.53;;;10.59;87.89
46942;BME280;32676;52.630;4.896;2024-03-22T11:03:31;101632.75;;;10.38;87.92
46942;BME280;32676;52.630;4.896;2024-03-22T11:05:59;101652.72;;;10.47;87.97
46942;BME280;32676;52.630;4.896;2024-03-22T11:08:26;101652.00;;;10.41;88.16
46942;BME280;32676;52.630;4.896;2024-03-22T11:10:53;101574.81;;;9.98;87.78
46942;BME280;32676;52.630;4.896;2024-03-22T11:13:19;101709.28;;;10.70;87.87
46942;BME280;32676;52.630;4.896;2024-03-22T11:15:48;101738.88;;;10.80;87.87
46942;BME280;32676;52.630;4.896;2024-03-22T11:18:14;101692.94;;;10.52;87.69
46942;BME280;32676;52.630;4.896;2024-03-22T11:20:42;101648.72;;;10.26;87.60
46942;BME280;32676;52.630;4.896;2024-03-22T11:23:08;101706.06;;;10.54;87.19
46942;BME280;32676;52.630;4.896;2024-03-22T11:25:35;101760.69;;;10.86;87.20
46942;BME280;32676;52.630;4.896;2024-03-22T11:28:03;101692.41;;;10.33;87.10
46942;BME280;32676;52.630;4.896;2024-03-22T11:30:32;101775.50;;;10.89;87.09
46942;BME280;32676;52.630;4.896;2024-03-22T11:33:02;101805.22;;;10.94;86.69
46942;BME280;32676;52.630;4.896;2024-03-22T11:35:28;101818.41;;;10.92;86.58
46942;BME280;32676;52.630;4.896;2024-03-22T11:37:55;101759.38;;;10.61;86.22
46942;BME280;32676;52.630;4.896;2024-03-22T11:40:22;101799.31;;;10.81;86.05
46942;BME280;32676;52.630;4.896;2024-03-22T11:42:51;101823.50;;;11.02;85.82
46942;BME280;32676;52.630;4.896;2024-03-22T11:45:17;101820.88;;;11.00;85.83
46942;BME280;32676;52.630;4.896;2024-03-22T11:47:46;101820.06;;;10.98;85.87
46942;BME280;32676;52.630;4.896;2024-03-22T11:50:14;101825.25;;;11.01;85.58
46942;BME280;32676;52.630;4.896;2024-03-22T11:52:42;101792.34;;;10.79;85.28
46942;BME280;32676;52.630;4.896;2024-03-22T11:55:10;101830.66;;;10.93;85.17
46942;BME280;32676;52.630;4.896;2024-03-22T11:57:37;101803.81;;;10.74;85.34
46942;BME280;32676;52.630;4.896;2024-03-22T12:00:03;101804.72;;;10.73;84.96
46942;BME280;32676;52.630;4.896;2024-03-22T12:02:35;101883.84;;;11.09;84.83
46942;BME280;32676;52.630;4.896;2024-03-22T12:05:01;101909.94;;;11.22;84.42
46942;BME280;32676;52.630;4.896;2024-03-22T12:07:30;101922.13;;;11.26;84.31
46942;BME280;32676;52.630;4.896;2024-03-22T12:09:55;101926.72;;;11.14;83.89
46942;BME280;32676;52.630;4.896;2024-03-22T12:12:23;101851.31;;;10.62;83.47
46942;BME280;32676;52.630;4.896;2024-03-22T12:14:48;101950.44;;;11.13;83.36
46942;BME280;32676;52.630;4.896;2024-03-22T12:17:16;101899.38;;;10.73;83.08
46942;BME280;32676;52.630;4.896;2024-03-22T12:19:42;102027.00;;;11.50;82.83
46942;BME280;32676;52.630;4.896;2024-03-22T12:22:09;102021.78;;;11.47;82.33
46942;BME280;32676;52.630;4.896;2024-03-22T12:24:36;102024.44;;;11.46;81.64
46942;BME280;32676;52.630;4.896;2024-03-22T12:27:04;102025.25;;;11.49;81.36
46942;BME280;32676;52.630;4.896;2024-03-22T12:29:32;102014.78;;;11.46;80.77
46942;BME280;32676;52.630;4.896;2024-03-22T12:32:00;101960.09;;;11.11;81.04
46942;BME280;32676;52.630;4.896;2024-03-22T12:34:27;102002.50;;;11.45;80.20
46942;BME280;32676;52.630;4.896;2024-03-22T12:36:54;101974.69;;;11.32;79.53
46942;BME280;32676;52.630;4.896;2024-03-22T12:39:20;101986.03;;;11.36;79.67
46942;BME280;32676;52.630;4.896;2024-03-22T12:41:48;101993.09;;;11.32;79.87
46942;BME280;32676;52.630;4.896;2024-03-22T12:44:14;102025.25;;;11.49;79.50
46942;BME280;32676;52.630;4.896;2024-03-22T12:46:40;102011.47;;;11.35;79.28